PWSweather.com
Personal Weather Stations
Station Observations

SaroSE

Lat: 57.5222, Lon: 11.947

Elevation: 35

Station Type: Davis VP2

http://www.lokaltvader.se/

High Low Average
Temperature 58.0°F14.4°C 47.7°F8.7°C 54.9°F12.7°C
Dew Point 54.8°F12.7°C 46.6°F8.1°C 52.5°F11.4°C
Winds 15.0 mph 24.1 kmh Calm Calm 9.0 mph WSW14.5 kmh WSW
Wind Gusts 19.6 mph31.5 kmh -- 11.0 mph17.7 kmh
Humidity 97% 86% 92%
Pressure 29.45 in997.3 mb 29.19 in988.5 mb -
Precipitation 0.71 in18.0 mm - -
Hour Temp Dew Point Humidity Winds Wind Gusts Pressure Precip Precip Rate Daily Precip Total
12:00 AM 54.6°F12.6°C 53.5°F11.9°C 96% 4.6 mph SSW7.4 kmh SSW 6.9 mph11.1 kmh 29.45 in997.3 mb - 0.13 in3.3 mm 0.13 in3.3 mm
12:15 AM 54.6°F12.6°C 53.5°F11.9°C 96% 6.9 mph S11.1 kmh S 10.4 mph16.7 kmh 29.44 in997.0 mb - 0.15 in3.8 mm 0.15 in3.8 mm
12:30 AM 54.7°F12.6°C 53.6°F12.0°C 96% 9.2 mph S14.8 kmh S 11.5 mph18.5 kmh 29.44 in997.0 mb - 0.20 in5.1 mm 0.22 in5.6 mm
12:45 AM 55.0°F12.8°C 53.9°F12.2°C 96% 5.8 mph SE9.3 kmh SE 9.2 mph14.8 kmh 29.43 in996.6 mb - 0.20 in5.1 mm 0.28 in7.1 mm
01:00 AM 55.3°F12.9°C 54.2°F12.3°C 96% 5.8 mph SSW9.3 kmh SSW 6.9 mph11.1 kmh 29.43 in996.6 mb - 0.23 in5.8 mm 0.35 in8.9 mm
01:15 AM 55.3°F12.9°C 54.2°F12.3°C 96% 4.6 mph SW7.4 kmh SW 4.6 mph7.4 kmh 29.43 in996.6 mb - 0.28 in7.1 mm 0.43 in10.9 mm
01:30 AM 54.8°F12.7°C 53.7°F12.1°C 96% 9.2 mph WSW14.8 kmh WSW 11.5 mph18.5 kmh 29.42 in996.3 mb - 0.40 in10.2 mm 0.61 in15.5 mm
01:45 AM 53.6°F12.0°C 52.5°F11.4°C 96% 9.2 mph WSW14.8 kmh WSW 11.5 mph18.5 kmh 29.42 in996.3 mb - 0.39 in9.9 mm 0.67 in17.0 mm
02:00 AM 55.7°F13.2°C 54.8°F12.7°C 97% 12.7 mph SW20.4 kmh SW 12.7 mph20.4 kmh 29.42 in996.3 mb - 0.36 in9.1 mm 0.71 in18.0 mm
02:15 AM 55.6°F13.1°C 54.8°F12.7°C 97% 13.8 mph WSW22.2 kmh WSW 15.0 mph24.1 kmh 29.41 in995.9 mb - 0.28 in7.1 mm 0.71 in18.0 mm
02:30 AM 55.3°F12.9°C 54.2°F12.3°C 96% 12.7 mph SW20.4 kmh SW 15.0 mph24.1 kmh 29.41 in995.9 mb - 0.10 in2.5 mm 0.71 in18.0 mm
02:45 AM 55.3°F12.9°C 54.1°F12.3°C 96% 15.0 mph WSW24.1 kmh WSW 18.4 mph29.6 kmh 29.41 in995.9 mb - 0.05 in1.3 mm 0.71 in18.0 mm
03:00 AM 55.3°F12.9°C 54.2°F12.3°C 96% 12.7 mph WSW20.4 kmh WSW 17.3 mph27.8 kmh 29.41 in995.9 mb - 0.01 in0.3 mm 0.71 in18.0 mm
03:15 AM 54.9°F12.7°C 53.8°F12.1°C 96% 11.5 mph WSW18.5 kmh WSW 13.8 mph22.2 kmh 29.41 in995.9 mb - 0.00 in0.0 mm 0.71 in18.0 mm
03:30 AM 55.0°F12.8°C 53.6°F12.0°C 95% 11.5 mph WSW18.5 kmh WSW 12.7 mph20.4 kmh 29.41 in995.9 mb - 0.00 in0.0 mm 0.71 in18.0 mm
03:45 AM 55.1°F12.8°C 53.7°F12.1°C 95% 12.7 mph WSW20.4 kmh WSW 13.8 mph22.2 kmh 29.41 in995.9 mb - 0.00 in0.0 mm 0.71 in18.0 mm
04:00 AM 55.0°F12.8°C 53.3°F11.8°C 94% 12.7 mph WSW20.4 kmh WSW 15.0 mph24.1 kmh 29.41 in995.9 mb - 0.00 in0.0 mm 0.71 in18.0 mm
04:15 AM 55.1°F12.8°C 53.1°F11.7°C 93% 15.0 mph WSW24.1 kmh WSW 18.4 mph29.6 kmh 29.41 in995.9 mb - 0.00 in0.0 mm 0.71 in18.0 mm
04:30 AM 54.9°F12.7°C 52.9°F11.6°C 93% 11.5 mph SW18.5 kmh SW 15.0 mph24.1 kmh 29.41 in995.9 mb - 0.00 in0.0 mm 0.71 in18.0 mm
04:45 AM 54.9°F12.7°C 52.9°F11.6°C 93% 11.5 mph WSW18.5 kmh WSW 11.5 mph18.5 kmh 29.41 in995.9 mb - 0.00 in0.0 mm 0.71 in18.0 mm
05:00 AM 55.0°F12.8°C 53.0°F11.7°C 93% 11.5 mph SW18.5 kmh SW 13.8 mph22.2 kmh 29.41 in995.9 mb - 0.00 in0.0 mm 0.71 in18.0 mm
05:15 AM 55.0°F12.8°C 53.0°F11.7°C 93% 13.8 mph SW22.2 kmh SW 15.0 mph24.1 kmh 29.41 in995.9 mb - 0.00 in0.0 mm 0.71 in18.0 mm
05:30 AM 55.0°F12.8°C 53.0°F11.7°C 93% 13.8 mph SW22.2 kmh SW 19.6 mph31.5 kmh 29.40 in995.6 mb - 0.00 in0.0 mm 0.71 in18.0 mm
05:45 AM 55.0°F12.8°C 53.0°F11.7°C 93% 15.0 mph SW24.1 kmh SW 18.4 mph29.6 kmh 29.40 in995.6 mb - 0.00 in0.0 mm 0.71 in18.0 mm
06:00 AM 55.0°F12.8°C 53.0°F11.7°C 93% 15.0 mph SW24.1 kmh SW 17.3 mph27.8 kmh 29.40 in995.6 mb - 0.00 in0.0 mm 0.71 in18.0 mm
06:15 AM 54.9°F12.7°C 52.6°F11.4°C 92% 13.8 mph SW22.2 kmh SW 17.3 mph27.8 kmh 29.40 in995.6 mb - 0.00 in0.0 mm 0.71 in18.0 mm
06:30 AM 54.6°F12.6°C 52.3°F11.3°C 92% 11.5 mph SW18.5 kmh SW 16.1 mph25.9 kmh 29.40 in995.6 mb - 0.00 in0.0 mm 0.71 in18.0 mm
06:45 AM 54.9°F12.7°C 52.6°F11.4°C 92% 11.5 mph SW18.5 kmh SW 12.7 mph20.4 kmh 29.39 in995.3 mb - 0.00 in0.0 mm 0.71 in18.0 mm
07:00 AM 54.8°F12.7°C 52.5°F11.4°C 92% 8.1 mph SW13.0 kmh SW 13.8 mph22.2 kmh 29.40 in995.6 mb - 0.00 in0.0 mm 0.71 in18.0 mm
07:15 AM 54.9°F12.7°C 52.6°F11.4°C 92% 13.8 mph SW22.2 kmh SW 16.1 mph25.9 kmh 29.40 in995.6 mb - 0.00 in0.0 mm 0.71 in18.0 mm
07:30 AM 55.0°F12.8°C 52.7°F11.5°C 92% 9.2 mph SW14.8 kmh SW 15.0 mph24.1 kmh 29.39 in995.3 mb - 0.00 in0.0 mm 0.71 in18.0 mm
07:45 AM 55.2°F12.9°C 52.9°F11.6°C 92% 11.5 mph SW18.5 kmh SW 12.7 mph20.4 kmh 29.39 in995.3 mb - 0.00 in0.0 mm 0.71 in18.0 mm
08:00 AM 55.1°F12.8°C 52.8°F11.6°C 92% 6.9 mph SW11.1 kmh SW 13.8 mph22.2 kmh 29.39 in995.3 mb - 0.00 in0.0 mm 0.71 in18.0 mm
08:15 AM 55.7°F13.2°C 53.4°F11.9°C 92% 10.4 mph SW16.7 kmh SW 13.8 mph22.2 kmh 29.39 in995.3 mb - 0.00 in0.0 mm 0.71 in18.0 mm
08:30 AM 55.9°F13.3°C 53.3°F11.8°C 91% 12.7 mph SW20.4 kmh SW 15.0 mph24.1 kmh 29.39 in995.3 mb - 0.00 in0.0 mm 0.71 in18.0 mm
08:45 AM 55.6°F13.1°C 53.0°F11.7°C 91% 6.9 mph SW11.1 kmh SW 11.5 mph18.5 kmh 29.39 in995.3 mb - 0.00 in0.0 mm 0.71 in18.0 mm
09:00 AM 55.8°F13.2°C 53.3°F11.8°C 91% 6.9 mph SW11.1 kmh SW 11.5 mph18.5 kmh 29.39 in995.3 mb - 0.00 in0.0 mm 0.71 in18.0 mm
09:15 AM 56.0°F13.3°C 53.1°F11.7°C 90% 6.9 mph SW11.1 kmh SW 11.5 mph18.5 kmh 29.39 in995.3 mb - 0.00 in0.0 mm 0.71 in18.0 mm
09:30 AM 56.3°F13.5°C 53.4°F11.9°C 90% 13.8 mph SW22.2 kmh SW 16.1 mph25.9 kmh 29.39 in995.3 mb - 0.00 in0.0 mm 0.71 in18.0 mm
09:45 AM 57.0°F13.9°C 53.8°F12.1°C 89% 9.2 mph SW14.8 kmh SW 16.1 mph25.9 kmh 29.39 in995.3 mb - 0.00 in0.0 mm 0.71 in18.0 mm
10:00 AM 56.7°F13.7°C 53.5°F11.9°C 89% 13.8 mph SW22.2 kmh SW 15.0 mph24.1 kmh 29.38 in994.9 mb - 0.00 in0.0 mm 0.71 in18.0 mm
10:15 AM 56.9°F13.8°C 53.7°F12.1°C 89% 15.0 mph SW24.1 kmh SW 17.3 mph27.8 kmh 29.38 in994.9 mb - 0.00 in0.0 mm 0.71 in18.0 mm
10:30 AM 57.0°F13.9°C 53.8°F12.1°C 89% 10.4 mph SW16.7 kmh SW 12.7 mph20.4 kmh 29.38 in994.9 mb - 0.00 in0.0 mm 0.71 in18.0 mm
10:45 AM 56.7°F13.7°C 53.2°F11.8°C 88% 10.4 mph SW16.7 kmh SW 13.8 mph22.2 kmh 29.37 in994.6 mb - 0.00 in0.0 mm 0.71 in18.0 mm
11:00 AM 56.8°F13.8°C 53.6°F12.0°C 89% 11.5 mph SW18.5 kmh SW 13.8 mph22.2 kmh 29.37 in994.6 mb - 0.00 in0.0 mm 0.71 in18.0 mm
11:15 AM 56.7°F13.7°C 53.5°F11.9°C 89% 13.8 mph SW22.2 kmh SW 17.3 mph27.8 kmh 29.37 in994.6 mb - 0.00 in0.0 mm 0.71 in18.0 mm
11:30 AM 56.7°F13.7°C 53.2°F11.8°C 88% 13.8 mph SW22.2 kmh SW 15.0 mph24.1 kmh 29.37 in994.6 mb - 0.00 in0.0 mm 0.71 in18.0 mm
11:45 AM 56.9°F13.8°C 53.4°F11.9°C 88% 12.7 mph SW20.4 kmh SW 16.1 mph25.9 kmh 29.36 in994.2 mb - 0.00 in0.0 mm 0.71 in18.0 mm
12:00 PM 56.7°F13.7°C 52.9°F11.6°C 87% 15.0 mph SW24.1 kmh SW 17.3 mph27.8 kmh 29.36 in994.2 mb - 0.00 in0.0 mm 0.71 in18.0 mm
12:15 PM 56.6°F13.7°C 52.8°F11.6°C 87% 11.5 mph SW18.5 kmh SW 16.1 mph25.9 kmh 29.36 in994.2 mb - 0.00 in0.0 mm 0.71 in18.0 mm
12:30 PM 57.0°F13.9°C 53.2°F11.8°C 87% 8.1 mph SSW13.0 kmh SSW 13.8 mph22.2 kmh 29.36 in994.2 mb - 0.00 in0.0 mm 0.71 in18.0 mm
12:45 PM 56.8°F13.8°C 52.7°F11.5°C 86% 13.8 mph SW22.2 kmh SW 15.0 mph24.1 kmh 29.35 in993.9 mb - 0.00 in0.0 mm 0.71 in18.0 mm
01:00 PM 56.7°F13.7°C 52.9°F11.6°C 87% 5.8 mph SW9.3 kmh SW 11.5 mph18.5 kmh 29.35 in993.9 mb - 0.00 in0.0 mm 0.71 in18.0 mm
01:15 PM 56.8°F13.8°C 52.9°F11.6°C 87% 8.1 mph SSW13.0 kmh SSW 10.4 mph16.7 kmh 29.34 in993.6 mb - 0.00 in0.0 mm 0.71 in18.0 mm
01:30 PM 56.7°F13.7°C 52.9°F11.6°C 87% 9.2 mph SW14.8 kmh SW 11.5 mph18.5 kmh 29.34 in993.6 mb - 0.00 in0.0 mm 0.71 in18.0 mm
01:45 PM 56.9°F13.8°C 53.1°F11.7°C 87% 11.5 mph SW18.5 kmh SW 13.8 mph22.2 kmh 29.34 in993.6 mb - 0.00 in0.0 mm 0.71 in18.0 mm
02:00 PM 56.9°F13.8°C 53.4°F11.9°C 88% 11.5 mph SW18.5 kmh SW 13.8 mph22.2 kmh 29.34 in993.6 mb - 0.00 in0.0 mm 0.71 in18.0 mm
02:15 PM 56.9°F13.8°C 53.7°F12.1°C 89% 15.0 mph SW24.1 kmh SW 17.3 mph27.8 kmh 29.34 in993.6 mb - 0.00 in0.0 mm 0.71 in18.0 mm
02:30 PM 57.0°F13.9°C 53.8°F12.1°C 89% 15.0 mph SW24.1 kmh SW 16.1 mph25.9 kmh 29.33 in993.2 mb - 0.00 in0.0 mm 0.71 in18.0 mm
02:45 PM 57.4°F14.1°C 54.2°F12.3°C 89% 13.8 mph SW22.2 kmh SW 17.3 mph27.8 kmh 29.32 in992.9 mb - 0.00 in0.0 mm 0.71 in18.0 mm
03:00 PM 57.3°F14.1°C 53.8°F12.1°C 88% 12.7 mph SW20.4 kmh SW 16.1 mph25.9 kmh 29.32 in992.9 mb - 0.00 in0.0 mm 0.71 in18.0 mm
03:15 PM 57.6°F14.2°C 54.4°F12.4°C 89% 11.5 mph SW18.5 kmh SW 13.8 mph22.2 kmh 29.31 in992.6 mb - 0.00 in0.0 mm 0.71 in18.0 mm
03:30 PM 58.0°F14.4°C 54.4°F12.4°C 88% 13.8 mph SW22.2 kmh SW 16.1 mph25.9 kmh 29.31 in992.6 mb - 0.00 in0.0 mm 0.71 in18.0 mm
03:45 PM 57.7°F14.3°C 54.5°F12.5°C 89% 11.5 mph SW18.5 kmh SW 15.0 mph24.1 kmh 29.30 in992.2 mb - 0.00 in0.0 mm 0.71 in18.0 mm
04:00 PM 57.6°F14.2°C 54.4°F12.4°C 89% 11.5 mph SW18.5 kmh SW 12.7 mph20.4 kmh 29.30 in992.2 mb - 0.00 in0.0 mm 0.71 in18.0 mm
04:15 PM 57.5°F14.2°C 54.3°F12.4°C 89% 11.5 mph SW18.5 kmh SW 13.8 mph22.2 kmh 29.29 in991.9 mb - 0.00 in0.0 mm 0.71 in18.0 mm
04:30 PM 57.5°F14.2°C 54.5°F12.5°C 90% 8.1 mph SW13.0 kmh SW 11.5 mph18.5 kmh 29.29 in991.9 mb - 0.00 in0.0 mm 0.71 in18.0 mm
04:45 PM 57.4°F14.1°C 54.5°F12.5°C 90% 3.5 mph SW5.6 kmh SW 4.6 mph7.4 kmh 29.28 in991.5 mb - 0.00 in0.0 mm 0.71 in18.0 mm
05:00 PM 57.0°F13.9°C 54.1°F12.3°C 90% 8.1 mph W13.0 kmh W 9.2 mph14.8 kmh 29.28 in991.5 mb - 0.00 in0.0 mm 0.71 in18.0 mm
05:15 PM 56.5°F13.6°C 53.6°F12.0°C 90% 2.3 mph W3.7 kmh W 3.5 mph5.6 kmh 29.28 in991.5 mb - 0.00 in0.0 mm 0.71 in18.0 mm
05:30 PM 56.4°F13.6°C 53.5°F11.9°C 90% 5.8 mph W9.3 kmh W 6.9 mph11.1 kmh 29.28 in991.5 mb - 0.00 in0.0 mm 0.71 in18.0 mm
05:45 PM 56.0°F13.3°C 53.4°F11.9°C 91% 4.6 mph W7.4 kmh W 8.1 mph13.0 kmh 29.27 in991.2 mb - 0.00 in0.0 mm 0.71 in18.0 mm
06:00 PM 55.7°F13.2°C 53.1°F11.7°C 91% 6.9 mph W11.1 kmh W 9.2 mph14.8 kmh 29.27 in991.2 mb - 0.00 in0.0 mm 0.71 in18.0 mm
06:15 PM 55.5°F13.1°C 52.9°F11.6°C 91% 5.8 mph WNW9.3 kmh WNW 6.9 mph11.1 kmh 29.27 in991.2 mb - 0.00 in0.0 mm 0.71 in18.0 mm
06:30 PM 54.9°F12.7°C 52.6°F11.4°C 92% 5.8 mph WNW9.3 kmh WNW 8.1 mph13.0 kmh 29.27 in991.2 mb - 0.00 in0.0 mm 0.71 in18.0 mm
06:45 PM 54.5°F12.5°C 52.2°F11.2°C 92% 5.8 mph W9.3 kmh W 6.9 mph11.1 kmh 29.26 in990.9 mb - 0.00 in0.0 mm 0.71 in18.0 mm
07:00 PM 54.4°F12.4°C 52.1°F11.2°C 92% 3.5 mph WNW5.6 kmh WNW 6.9 mph11.1 kmh 29.26 in990.9 mb - 0.00 in0.0 mm 0.71 in18.0 mm
07:15 PM 54.2°F12.3°C 52.2°F11.2°C 93% 6.9 mph WNW11.1 kmh WNW 8.1 mph13.0 kmh 29.26 in990.9 mb - 0.00 in0.0 mm 0.71 in18.0 mm
07:30 PM 54.1°F12.3°C 52.1°F11.2°C 93% 1.2 mph NW1.9 kmh NW 2.3 mph3.7 kmh 29.25 in990.5 mb - 0.00 in0.0 mm 0.71 in18.0 mm
07:45 PM 53.6°F12.0°C 51.3°F10.7°C 92% 3.5 mph NW5.6 kmh NW 3.5 mph5.6 kmh 29.25 in990.5 mb - 0.00 in0.0 mm 0.71 in18.0 mm
08:00 PM 52.9°F11.6°C 50.9°F10.5°C 93% Calm Calm -- 29.24 in990.2 mb - 0.00 in0.0 mm 0.71 in18.0 mm
08:15 PM 52.4°F11.3°C 50.4°F10.2°C 93% 2.3 mph WNW3.7 kmh WNW 3.5 mph5.6 kmh 29.24 in990.2 mb - 0.00 in0.0 mm 0.71 in18.0 mm
08:30 PM 51.8°F11.0°C 49.9°F9.9°C 93% Calm Calm -- 29.24 in990.2 mb - 0.00 in0.0 mm 0.71 in18.0 mm
08:45 PM 51.5°F10.8°C 49.9°F9.9°C 94% Calm Calm -- 29.23 in989.8 mb - 0.00 in0.0 mm 0.71 in18.0 mm
09:00 PM 51.3°F10.7°C 49.6°F9.8°C 94% Calm Calm -- 29.23 in989.8 mb - 0.00 in0.0 mm 0.71 in18.0 mm
09:15 PM 50.5°F10.3°C 48.8°F9.3°C 94% Calm Calm -- 29.23 in989.8 mb - 0.00 in0.0 mm 0.71 in18.0 mm
09:30 PM 50.4°F10.2°C 49.0°F9.4°C 95% Calm Calm -- 29.22 in989.5 mb - 0.00 in0.0 mm 0.71 in18.0 mm
09:45 PM 49.9°F9.9°C 48.5°F9.2°C 95% Calm Calm -- 29.22 in989.5 mb - 0.00 in0.0 mm 0.71 in18.0 mm
10:00 PM 49.6°F9.8°C 48.2°F9.0°C 95% Calm Calm -- 29.21 in989.2 mb - 0.00 in0.0 mm 0.71 in18.0 mm
10:15 PM 49.5°F9.7°C 48.1°F8.9°C 95% Calm Calm -- 29.21 in989.2 mb - 0.00 in0.0 mm 0.71 in18.0 mm
10:30 PM 49.2°F9.6°C 47.8°F8.8°C 95% Calm Calm -- 29.21 in989.2 mb - 0.00 in0.0 mm 0.71 in18.0 mm
10:45 PM 48.7°F9.3°C 47.3°F8.5°C 95% Calm Calm -- 29.20 in988.8 mb - 0.00 in0.0 mm 0.71 in18.0 mm
11:00 PM 48.4°F9.1°C 47.0°F8.3°C 95% Calm Calm -- 29.20 in988.8 mb - 0.00 in0.0 mm 2.78 in70.6 mm
11:15 PM 48.2°F9.0°C 46.8°F8.2°C 95% Calm Calm -- 29.20 in988.8 mb - 0.00 in0.0 mm 2.78 in70.6 mm
11:30 PM 48.7°F9.3°C 47.6°F8.7°C 96% Calm Calm -- 29.20 in988.8 mb - 0.00 in0.0 mm 2.78 in70.6 mm
11:45 PM 47.7°F8.7°C 46.6°F8.1°C 96% Calm Calm -- 29.19 in988.5 mb - 0.00 in0.0 mm 2.78 in70.6 mm